createdAt,value
2022-08-18T00:01:07.365Z,93.60
2022-08-18T00:03:55.456Z,93.60
2022-08-18T00:06:28.503Z,93.70
2022-08-18T00:08:57.619Z,93.90
2022-08-18T00:11:25.539Z,93.90
2022-08-18T00:13:53.429Z,94.20
2022-08-18T00:16:21.314Z,94.20
2022-08-18T00:18:49.144Z,94.20
2022-08-18T00:21:17.816Z,94.30
2022-08-18T00:23:47.075Z,94.50
2022-08-18T00:26:23.850Z,94.60
2022-08-18T00:28:51.730Z,94.80
2022-08-18T00:31:19.550Z,94.90
2022-08-18T00:33:47.405Z,94.70
2022-08-18T00:36:15.294Z,94.90
2022-08-18T00:38:43.147Z,94.90
2022-08-18T00:41:12.490Z,94.80
2022-08-18T00:43:45.058Z,94.80
2022-08-18T00:46:16.278Z,94.90
2022-08-18T00:48:48.661Z,95.00
2022-08-18T00:51:20.270Z,95.20
2022-08-18T00:53:51.431Z,95.20
2022-08-18T00:56:24.728Z,95.20
2022-08-18T00:58:57.867Z,95.20
2022-08-18T01:01:30.108Z,95.30
2022-08-18T01:04:03.028Z,95.30
2022-08-18T01:06:39.251Z,95.40
2022-08-18T01:09:08.376Z,95.50
2022-08-18T01:11:38.189Z,95.30
2022-08-18T01:14:08.156Z,95.40
2022-08-18T01:16:57.559Z,95.40
2022-08-18T01:19:45.030Z,95.40
2022-08-18T01:22:20.071Z,95.40
2022-08-18T01:25:09.033Z,95.80
2022-08-18T01:27:37.670Z,95.50
2022-08-18T01:30:10.425Z,95.50
2022-08-18T01:32:40.054Z,95.70
2022-08-18T01:35:11.349Z,95.90
2022-08-18T01:37:41.269Z,95.90
2022-08-18T01:41:23.720Z,95.90
2022-08-18T01:43:05.326Z,96.00
2022-08-18T01:45:34.522Z,96.00
2022-08-18T01:48:04.718Z,95.90
2022-08-18T01:50:34.202Z,95.80
2022-08-18T01:53:02.544Z,95.80
2022-08-18T01:55:31.738Z,95.90
2022-08-18T01:58:01.556Z,96.00
2022-08-18T02:00:30.189Z,96.00
2022-08-18T02:03:02.614Z,96.00
2022-08-18T02:05:35.584Z,96.00
2022-08-18T02:08:04.315Z,96.10
2022-08-18T02:10:33.987Z,96.10
2022-08-18T02:13:03.011Z,96.00
2022-08-18T02:15:30.948Z,96.00
2022-08-18T02:17:58.896Z,96.00
2022-08-18T02:20:26.848Z,96.00
2022-08-18T02:22:54.765Z,96.00
2022-08-18T02:25:23.056Z,96.00
2022-08-18T02:27:53.317Z,95.90
2022-08-18T02:30:21.447Z,96.00
2022-08-18T02:32:49.605Z,96.20
2022-08-18T02:35:17.614Z,96.30
2022-08-18T02:37:48.046Z,96.50
2022-08-18T02:40:16.875Z,96.40
2022-08-18T02:42:45.671Z,96.50
2022-08-18T02:45:15.755Z,96.30
2022-08-18T02:47:44.913Z,96.20
2022-08-18T02:50:13.701Z,96.30
2022-08-18T02:52:41.602Z,96.30
2022-08-18T02:55:11.030Z,96.20
2022-08-18T02:57:44.130Z,96.30
2022-08-18T03:00:16.533Z,96.30
2022-08-18T03:02:48.061Z,96.20
2022-08-18T03:05:16.677Z,96.30
2022-08-18T03:07:44.639Z,96.10
2022-08-18T03:10:31.787Z,96.20
2022-08-18T03:13:01.453Z,96.20
2022-08-18T03:15:30.694Z,96.20
2022-08-18T03:17:58.531Z,96.20
2022-08-18T03:20:30.583Z,96.30
2022-08-18T03:22:59.273Z,96.30
2022-08-18T03:25:27.133Z,96.30
2022-08-18T03:27:54.968Z,96.20
2022-08-18T03:30:23.614Z,96.30
2022-08-18T03:32:52.767Z,96.50
2022-08-18T03:35:20.574Z,96.40
2022-08-18T03:37:48.442Z,96.50
2022-08-18T03:40:16.422Z,96.40
2022-08-18T03:42:44.305Z,96.50
2022-08-18T03:45:17.862Z,96.50
2022-08-18T03:47:46.431Z,96.40
2022-08-18T03:50:15.743Z,96.40
2022-08-18T03:52:43.538Z,96.40
2022-08-18T03:55:11.401Z,96.30
2022-08-18T03:57:39.514Z,96.30
2022-08-18T04:00:09.221Z,96.20
2022-08-18T04:02:37.238Z,96.20
2022-08-18T04:05:05.744Z,96.60
2022-08-18T04:07:34.874Z,96.70
2022-08-18T04:10:02.707Z,96.40
2022-08-18T04:12:30.637Z,96.40
2022-08-18T04:14:58.484Z,96.50
2022-08-18T04:17:26.310Z,96.50
2022-08-18T04:19:54.754Z,96.40
2022-08-18T04:22:23.613Z,96.50
2022-08-18T04:24:53.411Z,96.50
2022-08-18T04:27:22.683Z,96.60
2022-08-18T04:29:50.928Z,96.50
2022-08-18T04:32:19.361Z,96.50
2022-08-18T04:34:47.203Z,96.70
2022-08-18T04:37:15.406Z,97.00
2022-08-18T04:39:44.041Z,96.60
2022-08-18T04:42:13.293Z,96.90
2022-08-18T04:44:42.986Z,96.70
2022-08-18T04:47:13.112Z,96.70
2022-08-18T04:49:44.539Z,96.60
2022-08-18T04:52:40.339Z,96.50
2022-08-18T04:55:10.535Z,96.50
2022-08-18T04:57:39.919Z,96.60
2022-08-18T05:00:11.063Z,96.60
2022-08-18T05:02:38.951Z,96.60
2022-08-18T05:05:07.871Z,96.70
2022-08-18T05:07:35.675Z,96.60
2022-08-18T05:10:03.538Z,96.70
2022-08-18T05:12:31.363Z,96.70
2022-08-18T05:15:01.118Z,96.80
2022-08-18T05:17:31.086Z,96.80
2022-08-18T05:19:59.987Z,96.80
2022-08-18T05:22:31.038Z,96.90
2022-08-18T05:25:00.070Z,96.90
2022-08-18T05:27:33.185Z,97.00
2022-08-18T05:30:03.386Z,96.90
2022-08-18T05:32:46.915Z,96.80
2022-08-18T05:35:23.089Z,96.70
2022-08-18T05:38:20.765Z,96.50
2022-08-18T05:41:03.573Z,96.70
2022-08-18T05:43:31.805Z,96.70
2022-08-18T05:46:05.290Z,96.90
2022-08-18T05:48:33.372Z,97.00
2022-08-18T05:51:15.346Z,97.00
2022-08-18T05:54:01.641Z,97.00
2022-08-18T05:56:47.430Z,97.00
2022-08-18T05:59:21.009Z,97.10
2022-08-18T06:01:56.716Z,97.10
2022-08-18T06:04:35.257Z,97.20
2022-08-18T06:07:09.032Z,97.20
2022-08-18T06:09:43.453Z,97.00
2022-08-18T06:12:20.158Z,96.90
2022-08-18T06:14:48.139Z,96.90
2022-08-18T06:17:47.557Z,96.90
2022-08-18T06:20:25.810Z,96.90
2022-08-18T06:23:01.782Z,96.90
2022-08-18T06:25:46.897Z,97.00
2022-08-18T06:28:16.861Z,97.00
2022-08-18T06:30:55.231Z,97.00
2022-08-18T06:33:39.521Z,97.10
2022-08-18T06:36:19.244Z,97.20
2022-08-18T06:38:58.280Z,97.30
2022-08-18T06:41:42.687Z,97.20
2022-08-18T06:44:14.043Z,97.20
2022-08-18T06:46:46.626Z,97.20
2022-08-18T06:49:38.830Z,97.30
2022-08-18T06:52:20.460Z,97.30
2022-08-18T06:54:49.341Z,97.40
2022-08-18T06:57:29.014Z,97.40
2022-08-18T07:00:00.064Z,97.50
2022-08-18T07:02:45.496Z,97.40
2022-08-18T07:05:22.185Z,97.50
2022-08-18T07:08:12.017Z,97.60
2022-08-18T07:10:42.539Z,97.70
2022-08-18T07:13:23.290Z,97.80
2022-08-18T07:15:51.770Z,97.80
2022-08-18T07:18:26.578Z,97.80
2022-08-18T07:20:58.169Z,97.80
2022-08-18T07:23:30.036Z,97.70
2022-08-18T07:26:09.691Z,97.80
2022-08-18T07:28:41.711Z,97.90
2022-08-18T07:31:17.429Z,97.90
2022-08-18T07:33:51.851Z,98.00
2022-08-18T07:36:24.317Z,98.00
2022-08-18T07:38:56.921Z,98.10
2022-08-18T07:41:27.783Z,98.10
2022-08-18T07:44:11.335Z,98.10
2022-08-18T07:46:49.303Z,98.10
2022-08-18T07:49:22.384Z,98.00
2022-08-18T07:51:57.366Z,98.10
2022-08-18T07:54:55.090Z,98.00
2022-08-18T07:57:35.371Z,98.00
2022-08-18T08:00:20.698Z,97.90
2022-08-18T08:03:06.871Z,97.90
2022-08-18T08:05:43.250Z,97.70
2022-08-18T08:08:25.329Z,97.80
2022-08-18T08:11:03.886Z,98.00
2022-08-18T08:13:58.273Z,98.00
2022-08-18T08:16:37.103Z,98.00
2022-08-18T08:19:56.741Z,97.60
2022-08-18T08:22:21.953Z,97.40
2022-08-18T08:25:17.478Z,97.20
2022-08-18T08:28:09.924Z,97.10
2022-08-18T08:30:45.273Z,97.00
2022-08-18T08:33:20.824Z,96.60
2022-08-18T08:35:54.839Z,96.40
2022-08-18T08:38:42.835Z,96.40
2022-08-18T08:41:19.451Z,96.00
2022-08-18T08:43:53.952Z,96.00
2022-08-18T08:46:25.616Z,95.90
2022-08-18T08:49:00.581Z,96.00
2022-08-18T08:51:35.205Z,96.00
2022-08-18T08:54:08.196Z,96.00
2022-08-18T08:56:44.477Z,96.20
2022-08-18T08:59:14.736Z,96.10
2022-08-18T09:01:52.728Z,96.00
2022-08-18T09:04:31.851Z,95.90
2022-08-18T09:07:15.207Z,95.60
2022-08-18T09:10:19.960Z,95.50
2022-08-18T09:13:08.490Z,95.30
2022-08-18T09:15:51.313Z,95.40
2022-08-18T09:18:34.969Z,95.40
2022-08-18T09:21:18.521Z,95.20
2022-08-18T09:23:48.826Z,95.20
2022-08-18T09:26:26.691Z,95.10
2022-08-18T09:29:00.309Z,95.20
2022-08-18T09:31:31.687Z,95.40
2022-08-18T09:34:36.837Z,95.30
2022-08-18T09:37:15.164Z,95.10
2022-08-18T09:40:10.958Z,95.10
2022-08-18T09:42:48.423Z,94.90
2022-08-18T09:45:57.949Z,94.70
2022-08-18T09:48:32.724Z,94.60
2022-08-18T09:51:24.519Z,94.70
2022-08-18T09:54:13.263Z,95.00
2022-08-18T10:00:28.327Z,94.90
2022-08-18T10:03:14.292Z,94.40
2022-08-18T10:05:59.432Z,94.30
2022-08-18T10:08:47.796Z,94.20
2022-08-18T10:11:29.137Z,94.20
2022-08-18T10:14:09.737Z,94.20
2022-08-18T10:17:16.010Z,94.10
2022-08-18T10:19:51.991Z,94.00
2022-08-18T10:22:39.387Z,93.90
2022-08-18T10:25:22.702Z,93.90
2022-08-18T10:27:56.222Z,94.00
2022-08-18T10:34:16.497Z,93.50
2022-08-18T10:36:58.952Z,93.40
2022-08-18T10:39:45.844Z,93.40
2022-08-18T10:42:21.090Z,93.50
2022-08-18T10:44:54.910Z,93.50
2022-08-18T10:47:33.618Z,93.40
2022-08-18T10:50:06.157Z,93.40
2022-08-18T10:55:53.664Z,93.30
2022-08-18T10:58:40.912Z,93.10
2022-08-18T11:01:25.500Z,93.10
2022-08-18T11:04:14.019Z,93.30
2022-08-18T11:06:48.337Z,92.60
2022-08-18T11:09:24.063Z,92.30
2022-08-18T11:12:00.039Z,92.50
2022-08-18T11:14:49.958Z,92.60
2022-08-18T11:17:29.214Z,92.60
2022-08-18T11:19:58.292Z,92.60
2022-08-18T11:22:32.394Z,92.70
2022-08-18T11:25:23.564Z,92.60
2022-08-18T11:27:51.498Z,92.60
2022-08-18T11:30:21.689Z,92.50
2022-08-18T11:33:02.652Z,92.30
2022-08-18T11:35:33.229Z,92.00
2022-08-18T11:38:03.758Z,92.30
2022-08-18T11:41:11.338Z,92.40
2022-08-18T11:43:39.137Z,92.00
2022-08-18T11:46:16.393Z,91.90
2022-08-18T11:51:35.691Z,92.20
2022-08-18T11:54:21.984Z,92.30
2022-08-18T11:56:53.120Z,92.30
2022-08-18T12:02:25.896Z,92.20
2022-08-18T12:07:57.908Z,92.40
2022-08-18T12:10:29.233Z,92.50
2022-08-18T12:13:01.274Z,92.40
2022-08-18T12:15:44.472Z,92.30
2022-08-18T12:18:18.847Z,92.30
2022-08-18T12:20:54.350Z,92.20
2022-08-18T12:23:23.064Z,92.20
2022-08-18T12:25:51.884Z,92.20
2022-08-18T12:28:22.765Z,92.00
2022-08-18T12:30:57.523Z,91.80
2022-08-18T12:33:34.310Z,91.70
2022-08-18T12:36:13.643Z,91.60
2022-08-18T12:38:44.097Z,91.30
2022-08-18T12:44:09.925Z,91.20
2022-08-18T12:46:57.462Z,91.20
2022-08-18T12:49:27.841Z,90.70
2022-08-18T12:51:57.521Z,90.60
2022-08-18T12:54:26.402Z,90.80
2022-08-18T12:56:57.542Z,91.00
2022-08-18T12:59:32.482Z,91.00
2022-08-18T13:02:05.703Z,90.90
2022-08-18T13:04:34.103Z,91.00
2022-08-18T13:07:06.013Z,90.80
2022-08-18T13:09:52.823Z,90.90
2022-08-18T13:12:22.667Z,91.30
2022-08-18T13:14:55.125Z,90.90
2022-08-18T13:17:32.892Z,91.00
2022-08-18T13:20:05.646Z,90.90
2022-08-18T13:22:33.678Z,90.90
2022-08-18T13:25:03.857Z,90.80
2022-08-18T13:27:36.098Z,90.80
2022-08-18T13:30:30.372Z,90.80
2022-08-18T13:33:02.690Z,90.90
2022-08-18T13:35:47.213Z,90.80
2022-08-18T13:38:27.267Z,90.80
2022-08-18T13:40:58.720Z,90.70
2022-08-18T13:43:31.997Z,90.70
2022-08-18T13:46:01.392Z,90.60
2022-08-18T13:48:30.461Z,90.70
2022-08-18T13:51:01.005Z,90.70
2022-08-18T13:53:31.714Z,90.80
2022-08-18T13:56:00.253Z,90.90
2022-08-18T13:58:30.317Z,90.90
2022-08-18T14:01:22.546Z,90.90
2022-08-18T14:03:50.382Z,90.80
2022-08-18T14:06:22.468Z,90.80
2022-08-18T14:08:51.420Z,90.90
2022-08-18T14:11:19.747Z,91.00
2022-08-18T14:13:48.876Z,91.00
2022-08-18T14:16:19.770Z,91.00
2022-08-18T14:19:09.724Z,90.90
2022-08-18T14:22:00.029Z,91.00
2022-08-18T14:24:48.614Z,90.90
2022-08-18T14:27:17.565Z,90.90
2022-08-18T14:29:48.529Z,90.90
2022-08-18T14:32:29.577Z,90.90
2022-08-18T14:35:00.098Z,90.80
2022-08-18T14:37:28.659Z,90.70
2022-08-18T14:39:57.101Z,90.80
2022-08-18T14:42:32.654Z,90.80
2022-08-18T14:45:03.686Z,91.10
2022-08-18T14:47:46.958Z,91.10
2022-08-18T14:50:19.489Z,91.20
2022-08-18T14:52:51.031Z,91.20
2022-08-18T14:55:19.874Z,91.30
2022-08-18T14:57:47.718Z,91.40
2022-08-18T15:00:21.047Z,91.40
2022-08-18T15:02:53.338Z,91.40
2022-08-18T15:05:24.768Z,91.50
2022-08-18T15:07:53.344Z,91.50
2022-08-18T15:10:23.704Z,91.50
2022-08-18T15:12:57.703Z,91.50
2022-08-18T15:15:25.726Z,91.50
2022-08-18T15:17:54.910Z,91.60
2022-08-18T15:20:29.477Z,91.50
2022-08-18T15:23:24.709Z,91.50
2022-08-18T15:25:54.248Z,91.50
2022-08-18T15:28:26.266Z,91.50
2022-08-18T15:33:43.890Z,91.50
2022-08-18T15:36:28.868Z,91.40
2022-08-18T15:38:57.961Z,91.40
2022-08-18T15:41:31.674Z,91.40
2022-08-18T15:44:00.833Z,91.50
2022-08-18T15:46:29.191Z,91.70
2022-08-18T15:48:58.726Z,91.70
2022-08-18T15:51:40.991Z,91.90
2022-08-18T15:54:10.060Z,92.10
2022-08-18T15:56:43.147Z,92.30
2022-08-18T15:59:11.473Z,92.40
2022-08-18T16:01:43.072Z,92.50
2022-08-18T16:04:15.435Z,92.50
2022-08-18T16:06:47.601Z,92.40
2022-08-18T16:09:16.577Z,92.40
2022-08-18T16:11:44.887Z,92.30
2022-08-18T16:14:12.698Z,92.30
2022-08-18T16:16:40.568Z,92.70
2022-08-18T16:19:08.447Z,92.40
2022-08-18T16:21:39.974Z,92.40
2022-08-18T16:24:09.140Z,92.30
2022-08-18T16:26:37.226Z,92.30
2022-08-18T16:29:05.260Z,92.20
2022-08-18T16:31:33.708Z,92.20
2022-08-18T16:34:01.562Z,92.30
2022-08-18T16:36:29.781Z,92.30
2022-08-18T16:38:58.983Z,92.30
2022-08-18T16:41:27.903Z,92.30
2022-08-18T16:43:56.208Z,92.20
2022-08-18T16:46:27.172Z,92.20
2022-08-18T16:48:55.842Z,92.30
2022-08-18T16:51:26.117Z,92.50
2022-08-18T16:53:54.861Z,92.50
2022-08-18T16:56:26.669Z,92.50
2022-08-18T16:59:12.031Z,92.60
2022-08-18T17:01:58.421Z,92.50
2022-08-18T17:04:29.060Z,92.50
2022-08-18T17:06:57.935Z,92.60
2022-08-18T17:09:26.427Z,92.70
2022-08-18T17:11:55.896Z,92.80
2022-08-18T17:14:27.706Z,92.80
2022-08-18T17:16:58.548Z,92.80
2022-08-18T17:19:33.455Z,92.80
2022-08-18T17:22:02.161Z,92.80
2022-08-18T17:24:31.863Z,92.90
2022-08-18T17:27:12.050Z,92.90
2022-08-18T17:30:01.189Z,92.90
2022-08-18T17:32:32.212Z,93.00
2022-08-18T17:35:05.321Z,93.20
2022-08-18T17:37:35.262Z,93.20
2022-08-18T17:40:09.739Z,93.30
2022-08-18T17:42:40.517Z,93.30
2022-08-18T17:45:13.847Z,93.40
2022-08-18T17:47:57.439Z,93.60
2022-08-18T17:50:48.677Z,93.70
2022-08-18T17:53:17.574Z,94.20
2022-08-18T17:55:48.585Z,95.00
2022-08-18T17:58:22.006Z,96.30
2022-08-18T18:00:49.854Z,97.40
2022-08-18T18:03:17.713Z,98.20
2022-08-18T18:05:51.599Z,99.30
2022-08-18T18:08:19.462Z,99.90
2022-08-18T18:11:05.397Z,99.90
2022-08-18T18:13:35.129Z,99.90
2022-08-18T18:16:19.550Z,99.90
2022-08-18T18:19:00.204Z,99.90
2022-08-18T18:22:00.484Z,99.90
2022-08-18T18:24:23.731Z,99.90
2022-08-18T18:26:52.547Z,99.90
2022-08-18T18:29:29.059Z,99.90
2022-08-18T18:32:03.347Z,99.90
2022-08-18T18:34:37.961Z,99.90
2022-08-18T18:37:07.064Z,99.90
2022-08-18T18:39:36.881Z,99.90
2022-08-18T18:42:18.008Z,99.90
2022-08-18T18:44:56.166Z,99.90
2022-08-18T18:47:42.565Z,99.90
2022-08-18T18:50:17.164Z,99.90
2022-08-18T18:53:07.977Z,99.90
2022-08-18T18:55:45.154Z,99.90
2022-08-18T18:58:22.823Z,99.80
2022-08-18T19:00:59.372Z,99.90
2022-08-18T19:03:38.143Z,99.90
2022-08-18T19:06:31.780Z,99.80
2022-08-18T19:09:08.161Z,99.80
2022-08-18T19:11:45.864Z,99.90
2022-08-18T19:14:19.438Z,99.90
2022-08-18T19:16:54.075Z,99.90
2022-08-18T19:19:38.245Z,99.90
2022-08-18T19:22:11.315Z,99.90
2022-08-18T19:24:46.626Z,99.90
2022-08-18T19:27:25.239Z,99.90
2022-08-18T19:29:57.648Z,99.90
2022-08-18T19:32:35.510Z,99.90
2022-08-18T19:35:11.987Z,99.90
2022-08-18T19:37:58.024Z,99.90
2022-08-18T19:40:32.592Z,99.90
2022-08-18T19:43:07.361Z,99.90
2022-08-18T19:45:42.278Z,99.90
2022-08-18T19:48:19.501Z,99.90
2022-08-18T19:50:52.521Z,99.90
2022-08-18T19:53:36.461Z,99.90
2022-08-18T19:56:19.846Z,99.90
2022-08-18T19:59:19.447Z,99.90
2022-08-18T20:02:00.971Z,99.90
2022-08-18T20:04:46.516Z,99.90
2022-08-18T20:07:47.078Z,99.90
2022-08-18T20:10:32.504Z,99.90
2022-08-18T20:13:20.567Z,99.90
2022-08-18T20:16:14.468Z,99.90
2022-08-18T20:18:44.047Z,99.90
2022-08-18T20:21:47.555Z,99.90
2022-08-18T20:24:39.382Z,99.90
2022-08-18T20:27:35.109Z,99.90
2022-08-18T20:30:26.115Z,99.90
2022-08-18T20:33:19.332Z,99.90
2022-08-18T20:36:00.192Z,99.90
2022-08-18T20:38:35.181Z,99.90
2022-08-18T20:41:38.989Z,99.90
2022-08-18T20:44:36.455Z,99.90
2022-08-18T20:47:26.690Z,99.90
2022-08-18T20:50:14.838Z,99.90
2022-08-18T20:52:49.446Z,99.90
2022-08-18T20:55:27.377Z,99.90
2022-08-18T20:58:05.367Z,99.90
2022-08-18T21:00:38.363Z,99.90
2022-08-18T21:03:09.749Z,99.90
2022-08-18T21:05:40.624Z,99.90
2022-08-18T21:08:26.342Z,99.90
2022-08-18T21:10:57.828Z,99.90
2022-08-18T21:13:36.087Z,99.90
2022-08-18T21:16:04.333Z,99.90
2022-08-18T21:18:35.080Z,99.90
2022-08-18T21:21:05.924Z,99.90
2022-08-18T21:23:38.440Z,99.90
2022-08-18T21:26:11.250Z,99.90
2022-08-18T21:28:43.025Z,99.90
2022-08-18T21:31:28.971Z,99.90
2022-08-18T21:34:13.907Z,99.90
2022-08-18T21:36:51.871Z,99.90
2022-08-18T21:39:20.954Z,99.90
2022-08-18T21:41:52.657Z,99.90
2022-08-18T21:44:24.164Z,99.90
2022-08-18T21:47:03.191Z,99.90
2022-08-18T21:49:31.840Z,99.90
2022-08-18T21:51:59.654Z,99.90
2022-08-18T21:54:34.639Z,99.90
2022-08-18T21:57:26.488Z,99.90
2022-08-18T22:00:18.088Z,99.90
2022-08-18T22:02:47.218Z,99.90
2022-08-18T22:05:29.041Z,99.90
2022-08-18T22:08:20.418Z,99.90
2022-08-18T22:11:59.560Z,99.90
2022-08-18T22:14:35.805Z,99.90
2022-08-18T22:17:27.221Z,99.90
2022-08-18T22:19:55.331Z,99.90
2022-08-18T22:22:41.802Z,99.90
2022-08-18T22:25:12.981Z,99.90
2022-08-18T22:27:41.101Z,99.90
2022-08-18T22:30:10.796Z,99.90
2022-08-18T22:32:39.954Z,99.90
2022-08-18T22:35:09.314Z,99.90
2022-08-18T22:37:45.321Z,99.90
2022-08-18T22:40:17.472Z,99.90
2022-08-18T22:42:49.761Z,99.90
2022-08-18T22:45:20.559Z,99.90
2022-08-18T22:47:48.416Z,99.90
2022-08-18T22:50:16.671Z,99.90
2022-08-18T22:52:48.115Z,99.90
2022-08-18T22:55:24.008Z,99.90
2022-08-18T22:57:54.762Z,99.90
2022-08-18T23:00:26.645Z,99.90
2022-08-18T23:02:55.205Z,99.90
2022-08-18T23:05:23.459Z,99.90
2022-08-18T23:07:51.424Z,99.90
2022-08-18T23:10:19.690Z,99.90
2022-08-18T23:12:49.149Z,99.90
2022-08-18T23:15:19.669Z,99.90
2022-08-18T23:17:48.850Z,99.90
2022-08-18T23:20:19.377Z,99.90
2022-08-18T23:22:48.129Z,99.90
2022-08-18T23:25:16.105Z,99.90
2022-08-18T23:27:44.061Z,99.90
2022-08-18T23:30:12.565Z,99.90
2022-08-18T23:32:40.427Z,99.90
2022-08-18T23:35:10.394Z,99.90
2022-08-18T23:37:39.483Z,99.90
2022-08-18T23:40:11.238Z,99.90
2022-08-18T23:42:39.133Z,99.90
2022-08-18T23:45:07.804Z,99.90
2022-08-18T23:47:36.556Z,99.90
2022-08-18T23:50:06.636Z,99.90
2022-08-18T23:52:35.858Z,99.90
2022-08-18T23:55:07.339Z,99.90
2022-08-18T23:57:35.992Z,99.90
